createdAt,value
2017-07-09T10:05:40.344Z,9.40
2017-07-09T10:08:09.170Z,9.03
2017-07-09T10:10:38.011Z,9.80
2017-07-09T10:13:06.840Z,24.70
2017-07-09T10:15:35.665Z,8.47
2017-07-09T10:18:04.591Z,10.37
2017-07-09T10:20:33.431Z,8.77
2017-07-09T10:23:02.260Z,7.07
2017-07-09T10:25:31.098Z,9.00
2017-07-09T10:27:59.950Z,17.17
2017-07-09T10:30:28.786Z,13.30
2017-07-09T10:32:57.625Z,19.37
2017-07-09T10:35:26.473Z,11.43
2017-07-09T10:37:55.322Z,7.50
2017-07-09T10:40:24.186Z,15.40
2017-07-09T10:42:53.037Z,10.77
2017-07-09T10:45:21.865Z,10.10
2017-07-09T10:47:50.705Z,8.87
2017-07-09T10:50:19.563Z,10.00
2017-07-09T10:52:48.388Z,8.70
2017-07-09T10:55:17.215Z,7.80
2017-07-09T10:57:46.069Z,14.93
2017-07-09T11:00:14.898Z,7.50
2017-07-09T11:02:43.728Z,7.93
2017-07-09T11:05:12.577Z,10.50
2017-07-09T11:07:41.411Z,8.53
2017-07-09T11:10:10.250Z,6.80
2017-07-09T11:12:39.102Z,15.63
2017-07-09T11:15:07.932Z,6.37
2017-07-09T11:17:36.757Z,8.27
2017-07-09T11:20:05.761Z,9.90
2017-07-09T11:22:34.583Z,9.67
2017-07-09T11:25:03.451Z,9.43
2017-07-09T11:27:32.310Z,14.37
2017-07-09T11:30:01.152Z,8.20
2017-07-09T11:32:29.984Z,16.77
2017-07-09T11:34:58.842Z,14.03
2017-07-09T11:37:27.699Z,285.03
2017-07-09T11:39:56.548Z,17.97
2017-07-09T11:42:25.393Z,83.20
2017-07-09T11:44:54.250Z,74.50
2017-07-09T11:47:23.094Z,29.67
2017-07-09T11:49:51.940Z,23.63
2017-07-09T11:52:20.770Z,11.00
2017-07-09T11:54:49.596Z,13.27
2017-07-09T11:57:18.441Z,12.00
2017-07-09T11:59:47.286Z,5.90
2017-07-09T12:02:16.117Z,12.50
2017-07-09T12:04:44.958Z,8.70
2017-07-09T12:07:13.799Z,12.63
2017-07-09T12:09:42.639Z,9.47
2017-07-09T12:12:11.494Z,5.57
2017-07-09T12:14:40.338Z,15.17
2017-07-09T12:17:09.178Z,27.97
2017-07-09T12:19:38.036Z,352.57
2017-07-09T12:22:06.881Z,156.73
2017-07-09T12:24:35.734Z,100.30
2017-07-09T12:27:04.600Z,84.50
2017-07-09T12:29:33.448Z,36.10
2017-07-09T12:32:02.297Z,93.00
2017-07-09T12:34:31.167Z,112.07
2017-07-09T12:37:00.005Z,61.73
2017-07-09T12:39:28.835Z,14.00
2017-07-09T12:41:57.707Z,17.97
2017-07-09T12:44:27.097Z,19.33
2017-07-09T12:46:55.940Z,21.63
2017-07-09T12:49:24.911Z,16.57
2017-07-09T12:51:53.756Z,20.60
2017-07-09T12:54:22.633Z,103.17
2017-07-09T12:56:51.487Z,106.90
2017-07-09T12:59:20.345Z,69.67
2017-07-09T13:01:49.230Z,85.80
2017-07-09T13:04:18.078Z,13.80
2017-07-09T13:06:46.933Z,92.50
2017-07-09T13:09:15.802Z,56.47
2017-07-09T13:11:44.654Z,45.23
2017-07-09T13:14:13.502Z,29.93
2017-07-09T13:16:42.352Z,29.17
2017-07-09T13:19:11.207Z,238.43
2017-07-09T13:21:40.044Z,219.67
2017-07-09T13:24:08.886Z,101.67
2017-07-09T13:26:37.744Z,67.03
2017-07-09T13:29:06.572Z,36.53
2017-07-09T13:31:35.527Z,31.37
2017-07-09T13:34:04.386Z,14.60
2017-07-09T13:36:33.235Z,16.57
2017-07-09T13:39:02.210Z,15.30
2017-07-09T13:41:31.067Z,20.63
2017-07-09T13:43:59.901Z,11.40
2017-07-09T13:46:28.741Z,12.00
2017-07-09T13:48:57.588Z,10.10
2017-07-09T13:51:26.416Z,9.27
2017-07-09T13:53:55.292Z,12.20
2017-07-09T13:56:24.141Z,10.40
2017-07-09T13:58:53.010Z,11.17
2017-07-09T14:01:21.912Z,10.50
2017-07-09T14:03:50.777Z,11.37
2017-07-09T14:06:19.609Z,10.23
2017-07-09T14:08:48.444Z,166.33
2017-07-09T14:11:17.322Z,284.17
2017-07-09T14:13:46.194Z,164.63
2017-07-09T14:16:15.041Z,61.40
2017-07-09T14:18:43.901Z,53.07
2017-07-09T14:21:12.734Z,31.20
2017-07-09T14:23:41.586Z,192.87
2017-07-09T14:26:10.535Z,332.83
2017-07-09T14:28:39.385Z,100.70
2017-07-09T14:31:08.221Z,124.00
2017-07-09T14:33:37.076Z,46.37
2017-07-09T14:36:05.912Z,126.40
2017-07-09T14:38:34.784Z,317.73
2017-07-09T14:41:03.688Z,114.27
2017-07-09T14:43:32.526Z,82.10
2017-07-09T14:46:01.360Z,47.77
2017-07-09T14:48:30.377Z,66.13
2017-07-09T14:50:59.236Z,54.83
2017-07-09T14:53:28.082Z,61.50
2017-07-09T14:55:56.947Z,44.13
2017-07-09T14:58:25.795Z,139.33
2017-07-09T15:00:54.663Z,241.83
2017-07-09T15:03:23.518Z,55.67
2017-07-09T15:05:52.358Z,89.13
2017-07-09T15:08:21.190Z,79.30
2017-07-09T15:10:50.047Z,85.43
2017-07-09T15:13:18.892Z,85.53
2017-07-09T15:15:47.730Z,80.47
2017-07-09T15:18:16.581Z,47.20
2017-07-09T15:20:45.422Z,40.40
2017-07-09T15:23:14.281Z,26.13
2017-07-09T15:25:43.136Z,26.83
2017-07-09T15:28:11.970Z,38.63
2017-07-09T15:30:40.814Z,20.57
2017-07-09T15:33:09.681Z,17.80
2017-07-09T15:35:38.518Z,15.80
2017-07-09T15:38:07.344Z,12.17
2017-07-09T15:40:36.179Z,10.63
2017-07-09T15:43:05.005Z,12.57
2017-07-09T15:45:33.858Z,11.10
2017-07-09T15:48:02.747Z,12.07
2017-07-09T15:50:31.569Z,9.77
2017-07-09T15:53:00.403Z,8.17
2017-07-09T15:55:29.241Z,8.67
2017-07-09T15:57:58.077Z,11.47
2017-07-09T16:00:27.558Z,9.67
2017-07-09T16:02:58.119Z,18.73
2017-07-09T16:05:28.415Z,9.40
2017-07-09T16:07:57.264Z,6.33
2017-07-09T16:10:26.105Z,11.57
2017-07-09T16:12:54.937Z,12.07
2017-07-09T16:15:24.462Z,9.60
2017-07-09T16:17:53.977Z,9.20
2017-07-09T16:20:23.337Z,13.77
2017-07-09T16:22:52.791Z,11.37
2017-07-09T16:25:22.040Z,14.17
2017-07-09T16:27:50.869Z,10.00
2017-07-09T16:30:19.710Z,10.13
2017-07-09T16:32:48.545Z,11.53
2017-07-09T16:35:19.306Z,26.80
2017-07-09T16:37:49.248Z,9.80
2017-07-09T16:40:18.087Z,26.53
2017-07-09T16:42:46.921Z,13.10
2017-07-09T16:45:15.782Z,19.33
2017-07-09T16:47:45.367Z,11.17
2017-07-09T16:50:16.579Z,9.60
2017-07-09T16:52:45.521Z,8.03
2017-07-09T16:55:14.359Z,33.73
2017-07-09T16:57:43.205Z,392.77
2017-07-09T17:00:12.056Z,33.03
2017-07-09T17:02:40.906Z,33.10
2017-07-09T17:05:09.742Z,44.30
2017-07-09T17:07:38.629Z,18.63
2017-07-09T17:10:07.457Z,13.70
2017-07-09T17:12:36.285Z,13.60
2017-07-09T17:15:05.133Z,16.00
2017-07-09T17:17:35.634Z,20.53
2017-07-09T17:20:04.610Z,14.93
2017-07-09T17:22:36.110Z,27.97
2017-07-09T17:25:07.369Z,13.23
2017-07-09T17:27:38.462Z,15.33
2017-07-09T17:30:09.669Z,14.40
2017-07-09T17:32:42.040Z,13.93
2017-07-09T17:35:12.774Z,11.87
2017-07-09T17:37:42.109Z,13.20
2017-07-09T17:40:11.933Z,10.10
2017-07-09T17:42:43.294Z,13.13
2017-07-09T17:45:15.722Z,14.70
2017-07-09T17:47:44.757Z,9.33
2017-07-09T17:50:14.165Z,9.60
2017-07-09T17:52:45.073Z,12.27
2017-07-09T17:55:16.656Z,11.03
2017-07-09T17:57:47.061Z,10.50
2017-07-09T18:00:18.664Z,8.17
2017-07-09T18:02:47.654Z,14.97
2017-07-09T18:05:16.497Z,17.03
2017-07-09T18:07:45.342Z,10.40
2017-07-09T18:10:14.176Z,8.67
2017-07-09T18:12:43.010Z,12.73
2017-07-09T18:15:11.850Z,15.90
2017-07-09T18:17:40.695Z,9.63
2017-07-09T18:20:09.521Z,10.87
2017-07-09T18:22:38.373Z,13.00
2017-07-09T18:25:07.214Z,12.43
2017-07-09T18:27:36.048Z,10.93
2017-07-09T18:30:04.895Z,9.10
2017-07-09T18:32:33.741Z,15.93
2017-07-09T18:35:02.569Z,14.73
2017-07-09T18:37:31.419Z,17.17
2017-07-09T18:40:00.253Z,16.37
2017-07-09T18:42:29.166Z,15.70
2017-07-09T18:44:58.027Z,13.20
2017-07-09T18:47:26.862Z,15.47
2017-07-09T18:49:55.693Z,13.10
2017-07-09T18:52:24.549Z,158.97
2017-07-09T18:54:53.458Z,451.03
2017-07-09T18:57:22.302Z,241.47
2017-07-09T18:59:51.199Z,192.87
2017-07-09T19:02:20.061Z,118.67
2017-07-09T19:04:48.902Z,91.70
2017-07-09T19:07:21.233Z,66.10
2017-07-09T19:09:52.205Z,138.33
2017-07-09T19:12:21.761Z,50.10
2017-07-09T19:14:51.986Z,250.83
2017-07-09T19:17:21.080Z,254.27
2017-07-09T19:19:52.642Z,176.90
2017-07-09T19:22:22.471Z,111.97
2017-07-09T19:24:51.594Z,22.27
2017-07-09T19:27:21.426Z,81.13
2017-07-09T19:29:50.578Z,70.90
2017-07-09T19:32:19.421Z,189.17
2017-07-09T19:34:48.633Z,438.97
2017-07-09T19:37:17.644Z,314.70
2017-07-09T19:39:47.382Z,237.80
2017-07-09T19:42:16.591Z,227.90
2017-07-09T19:44:45.939Z,88.27
2017-07-09T19:47:15.863Z,124.77
2017-07-09T19:49:46.402Z,102.23
2017-07-09T19:52:15.905Z,74.50
2017-07-09T19:54:45.534Z,429.70
2017-07-09T19:57:14.917Z,374.03
2017-07-09T19:59:44.271Z,153.87
2017-07-09T20:02:13.737Z,89.97
2017-07-09T20:04:42.817Z,247.23
2017-07-09T20:07:12.482Z,522.57
2017-07-09T20:09:41.477Z,355.73
2017-07-09T20:12:10.771Z,65.93
2017-07-09T20:14:39.643Z,16.13
2017-07-09T20:17:08.484Z,62.23
2017-07-09T20:19:37.431Z,66.33
2017-07-09T20:22:08.423Z,60.63
2017-07-09T20:24:39.456Z,26.47
2017-07-09T20:27:08.729Z,46.17
2017-07-09T20:29:38.363Z,32.70
2017-07-09T20:32:08.659Z,34.40
2017-07-09T20:34:37.566Z,38.90
2017-07-09T20:37:06.742Z,29.40
2017-07-09T20:39:36.736Z,43.83
2017-07-09T20:42:08.050Z,26.90
2017-07-09T20:44:39.999Z,22.10
2017-07-09T20:47:10.931Z,15.40
2017-07-09T20:49:40.681Z,12.63
2017-07-09T20:52:11.764Z,9.00
2017-07-09T20:54:42.136Z,7.67
2017-07-09T20:57:12.406Z,8.33
2017-07-09T20:59:42.167Z,6.13
2017-07-09T21:02:11.005Z,7.60
2017-07-09T21:04:42.501Z,21.53
2017-07-09T21:07:13.382Z,8.00
2017-07-09T21:09:44.340Z,7.30
2017-07-09T21:12:14.913Z,5.37
2017-07-09T21:14:45.741Z,5.10
2017-07-09T21:17:14.761Z,8.10
2017-07-09T21:19:43.587Z,5.37
2017-07-09T21:22:13.289Z,4.47
2017-07-09T21:24:45.103Z,10.10
2017-07-09T21:27:15.650Z,6.73
2017-07-09T21:29:46.268Z,10.23
2017-07-09T21:32:15.254Z,7.00
2017-07-09T21:34:46.130Z,5.67
2017-07-09T21:37:17.171Z,5.60
2017-07-09T21:39:48.220Z,7.13
2017-07-09T21:42:19.151Z,8.10
2017-07-09T21:44:50.767Z,7.50
2017-07-09T21:47:21.392Z,5.73
2017-07-09T21:49:52.150Z,6.30
2017-07-09T21:52:21.451Z,4.40
2017-07-09T21:54:51.933Z,5.17
2017-07-09T21:57:23.014Z,7.97
2017-07-09T21:59:54.008Z,4.53
2017-07-09T22:02:24.895Z,4.17
2017-07-09T22:04:55.800Z,5.30
2017-07-09T22:07:28.037Z,5.87
2017-07-09T22:09:58.786Z,9.83
2017-07-09T22:12:31.567Z,5.50
2017-07-09T22:15:02.892Z,7.23
2017-07-09T22:17:33.789Z,21.47
2017-07-09T22:20:04.951Z,5.57
2017-07-09T22:22:34.879Z,6.13
2017-07-09T22:25:05.701Z,4.23
2017-07-09T22:27:34.637Z,8.90
2017-07-09T22:30:03.728Z,4.10
2017-07-09T22:32:32.906Z,4.30
2017-07-09T22:35:01.764Z,11.70
2017-07-09T22:37:30.653Z,4.53
2017-07-09T22:39:59.654Z,4.93
2017-07-09T22:42:28.624Z,5.40
2017-07-09T22:44:57.538Z,4.27
2017-07-09T22:47:26.557Z,6.37
2017-07-09T22:49:55.518Z,5.93
2017-07-09T22:52:24.652Z,6.47
2017-07-09T22:54:53.653Z,4.77
2017-07-09T22:57:22.623Z,2.90
2017-07-09T22:59:51.525Z,2.47
2017-07-09T23:02:20.531Z,2.90
2017-07-09T23:04:49.477Z,4.90
2017-07-09T23:07:18.518Z,3.93
2017-07-09T23:09:47.376Z,7.30
2017-07-09T23:12:16.202Z,4.53
2017-07-09T23:14:45.299Z,4.57
2017-07-09T23:17:14.169Z,8.60
2017-07-09T23:19:42.998Z,5.50
2017-07-09T23:22:11.831Z,6.80
2017-07-09T23:24:40.686Z,4.57
2017-07-09T23:27:09.557Z,4.13
2017-07-09T23:29:38.392Z,3.57
2017-07-09T23:32:07.401Z,3.03
2017-07-09T23:34:36.510Z,12.60
2017-07-09T23:37:05.341Z,4.57
2017-07-09T23:39:34.173Z,6.07
2017-07-09T23:42:03.156Z,6.80
2017-07-09T23:44:31.982Z,3.43
2017-07-09T23:47:00.826Z,4.93
2017-07-09T23:49:30.090Z,4.70
2017-07-09T23:51:58.924Z,3.00
2017-07-09T23:54:27.778Z,4.40
2017-07-09T23:56:56.673Z,4.50
2017-07-09T23:59:25.504Z,4.37
